• Join FlightAware (Why Join?)
  • Login
  • US Flag 
05:14AM EDT


 

Airport Tracker/Info


-or-


 

Live Flight TrackerFlight Track Log ✈ AAL1805 ✈ 07-May-2013 ✈ KDCA - KMIA

Flight Track Log - Related Links

Times and Time Zones

All times are in EDT time to prevent confusion due to time zone crossing. See the AAL1805 flight status page for this flight to view local times or setup timezone preferences in your user account.

Time Position Orientation Groundspeed Altitude Reporting Facility
EDT Latitude Longitude Course Direction KTS MPH feet Rate Location/Type
03:30PM 38.8833 -77.0667 180° South 189 217 1,800  Level Potomac TRACON
03:31PM 38.9333 -77.1333 314° West 281 323 3,600 2,520 Climbing Potomac TRACON
03:32PM 38.6068 -76.7757 134° Southeast  Level FlightAware Approximate
03:32PM 38.9833 -77.2167 308° West 307 353 6,900  Level Potomac TRACON
03:33PM 38.5169 -76.7134 171° South  Level FlightAware Approximate
03:33PM 39.0500 -77.1833 21° North 300 345 10,000  Level Potomac TRACON
03:34PM 38.4111 -76.7000 180° South  Level FlightAware Approximate
03:34PM 39.0167 -77.1000 117° Southeast 268 308 13,000  Level Potomac TRACON
03:35PM 38.3176 -76.6833 180° South  Level FlightAware Approximate
03:35PM 38.9833 -77.0167 117° Southeast 292 336 16,200  Level Potomac TRACON
03:36PM 38.2122 -76.6667 180° South  Level FlightAware Approximate
03:36PM 38.9167 -76.9333 136° Southeast 346 398 18,100  Level Potomac TRACON
03:37PM 38.8333 -76.8833 155° Southeast 404 465 19,000 420 Climbing Potomac TRACON
03:38PM 38.7333 -76.8333 159° South 348 400 19,000  Level Potomac TRACON
03:39PM 38.6636 -76.7908 155° Southeast 351 404 19,000 360 Level Washington Center
03:40PM 38.5764 -76.7417 156° South 356 410 19,700 1,620 Climbing Washington Center
03:41PM 38.4808 -76.7161 168° South 351 404 22,200 1,620 Climbing Washington Center
03:42PM 38.3767 -76.7042 175° South 360 414 23,000 1,080 Climbing Washington Center
03:43PM 38.2725 -76.6839 171° South 373 429 24,400 1,680 Climbing Washington Center
03:44PM 38.1683 -76.6719 175° South 373 429 26,400 1,740 Climbing Washington Center
03:45PM 38.0600 -76.6572 174° South 386 444 28,000 1,740 Climbing Washington Center
03:46PM 37.9475 -76.6450 175° South 398 458 30,000 960 Climbing Washington Center
03:47PM 37.8372 -76.6303 174° South 403 464 30,000 900 Level Washington Center
03:48PM 37.7289 -76.6158 174° South 403 464 31,900 1,440 Climbing Washington Center
03:49PM 37.6183 -76.6011 174° South 403 464 33,000 960 Climbing Washington Center
03:50PM 37.5039 -76.5867 174° South 408 470 33,900 480 Climbing Washington Center
03:51PM 37.3892 -76.5694 173° South 408 470 34,000  Climbing Washington Center
03:52PM 37.2767 -76.5575 175° South 408 470 34,000  Level Washington Center
03:53PM 37.1558 -76.5431 175° South 402 463 34,000  Level Washington Center
03:54PM 37.0453 -76.5286 174° South 402 463 34,000  Level Washington Center
03:55PM 36.9369 -76.5117 173° South 402 463 34,000  Level Washington Center
03:56PM 36.8347 -76.5003 175° South 402 463 34,000  Level Washington Center
03:57PM 36.7244 -76.4858 174° South 402 463 34,000 360 Level Washington Center
03:58PM 36.6139 -76.4744 175° South 402 463 34,800 960 Climbing Washington Center
04:00PM 36.3886 -76.4486 175° South 407 468 37,000 1,020 Climbing Washington Center
04:01PM 36.2842 -76.4989 201° Southwest 390 449 38,000 480 Climbing Washington Center
04:02PM 36.1792 -76.5594 205° Southwest 397 457 38,000 -60 Level Washington Center
04:03PM 36.0744 -76.6175 204° Southwest 409 471 37,900  Descending Washington Center
04:04PM 35.9717 -76.6750 204° Southwest 414 476 38,000  Climbing Washington Center
04:05PM 35.8669 -76.7325 204° Southwest 419 482 37,900  Descending Washington Center
04:06PM 35.7642 -76.7925 205° Southwest 419 482 38,000  Climbing Washington Center
04:07PM 35.6569 -76.8497 203° Southwest 419 482 38,000  Level Washington Center
04:08PM 35.5583 -76.9094 206° Southwest 413 475 38,000  Level Washington Center
04:09PM 35.4511 -76.9689 204° Southwest 413 475 38,000  Level Washington Center
04:10PM 35.3464 -77.0256 204° Southwest 413 475 38,000  Level Washington Center
04:11PM 35.2433 -77.0850 205° Southwest 418 481 38,000  Level Washington Center
04:12PM 35.1383 -77.1414 204° Southwest 418 481 38,000  Level Washington Center
04:13PM 35.0353 -77.1978 204° Southwest 418 481 38,000  Level Washington Center
04:14PM 34.9344 -77.2514 204° Southwest 417 480 38,000  Level Washington Center
04:15PM 34.8292 -77.3100 205° Southwest 417 480 38,000 -60 Level Washington Center
04:16PM 34.7261 -77.3686 205° Southwest 411 473 37,900  Descending Washington Center
04:17PM 34.6250 -77.4269 205° Southwest 405 466 38,000  Climbing Washington Center
04:18PM 34.5181 -77.4750 200° South 405 466 38,000 -60 Level Washington Center
04:19PM 34.4028 -77.5100 194° South 410 472 37,900 -60 Descending Washington Center
04:20PM 34.2894 -77.5450 194° South 422 486 37,900  Level Washington Center
04:21PM 34.1783 -77.5828 196° South 422 486 38,000 60 Climbing Washington Center
04:22PM 34.1031 -77.6036 193° South 425 489 38,000  Level Jacksonville Center
04:23PM 33.9939 -77.6353 194° South 425 489 38,000  Level Jacksonville Center
04:24PM 33.8808 -77.6747 196° South 425 489 38,000  Level Jacksonville Center
04:25PM 33.7675 -77.7089 194° South 425 489 38,000  Level Jacksonville Center
04:26PM 33.6542 -77.7456 195° South 425 489 38,000 -60 Level Jacksonville Center
04:27PM 33.5450 -77.7792 194° South 425 489 37,900 -60 Descending Jacksonville Center
04:28PM 33.4339 -77.8156 195° South 418 481 37,900  Level Jacksonville Center
04:29PM 33.3244 -77.8492 194° South 413 475 38,000  Climbing Jacksonville Center
04:30PM 33.2153 -77.8825 194° South 408 470 37,900  Descending Jacksonville Center
04:31PM 33.1039 -77.9186 195° South 413 475 38,000  Climbing Jacksonville Center
04:32PM 32.9925 -77.9494 193° South 413 475 37,900 -60 Descending Jacksonville Center
04:33PM 32.8856 -77.9875 197° South 413 475 37,900  Level Jacksonville Center
04:34PM 32.7761 -78.0181 193° South 413 475 37,900  Level Jacksonville Center
04:35PM 32.6647 -78.0539 195° South 413 475 38,000  Climbing Jacksonville Center
04:36PM 32.5556 -78.0892 195° South 413 475 38,000 -60 Level Jacksonville Center
04:37PM 32.4461 -78.1244 195° South 413 475 37,900 -60 Descending Jacksonville Center
04:38PM 32.3367 -78.1547 193° South 413 475 37,900  Level Jacksonville Center
04:39PM 32.2275 -78.1900 195° South 413 475 38,000  Climbing Jacksonville Center
04:40PM 32.1203 -78.2250 195° South 413 475 38,000  Level Jacksonville Center
04:41PM 32.0131 -78.2622 196° South 408 470 38,000 -60 Level Jacksonville Center
04:42PM 31.9075 -78.2919 193° South 408 470 37,900  Descending Jacksonville Center
04:43PM 31.7964 -78.3317 197° South 414 476 38,000  Climbing Jacksonville Center
04:44PM 31.6892 -78.3664 195° South 414 476 38,000  Level Jacksonville Center
04:45PM 31.5942 -78.3953 195° South 405 466 38,000 -60 Level Jacksonville Center
04:46PM 31.4847 -78.4322 196° South 405 466 37,900 -60 Descending Jacksonville Center
04:47PM 31.3772 -78.4642 194° South 405 466 37,900  Level Jacksonville Center
04:48PM 31.2719 -78.4983 196° South 399 459 38,000  Climbing Jacksonville Center
04:49PM 31.1667 -78.5300 194° South 394 453 37,900 -60 Descending Jacksonville Center
04:50PM 31.0592 -78.5639 195° South 394 453 37,900  Level Jacksonville Center
04:51PM 30.9414 -78.5983 194° South 391 450 38,000  Climbing Jacksonville Center
04:52PM 30.8425 -78.6344 197° South 381 438 38,000 -60 Level Jacksonville Center
04:53PM 30.7350 -78.6658 194° South 392 451 37,900  Descending Jacksonville Center
04:54PM 30.6208 -78.6967 193° South 387 445 38,000  Climbing Miami Center
04:55PM 30.5225 -78.7167 190° South 387 445 38,000 -60 Level Miami Center
04:56PM 30.4097 -78.7361 188° South 395 455 37,900  Descending Miami Center
04:57PM 30.3011 -78.7536 188° South 408 470 38,000  Climbing Miami Center
04:58PM 30.1883 -78.7731 188° South 408 470 38,000 -60 Level Miami Center
04:59PM 30.0839 -78.7906 188° South 408 470 37,900  Descending Miami Center
05:00PM 29.9686 -78.8267 195° South 402 463 38,000  Climbing Miami Center
05:01PM 29.8517 -78.8389 185° South 407 468 38,000  Level Miami Center
05:02PM 29.7431 -78.8561 188° South 407 468 38,000  Level Miami Center
05:03PM 29.6344 -78.8731 188° South 407 468 38,000  Level Miami Center
05:04PM 29.5361 -78.8833 185° South 401 461 38,000  Level Miami Center
05:05PM 29.4297 -78.9003 188° South 401 461 38,000  Level Miami Center
05:06PM 29.3125 -78.9100 184° South 410 472 38,000  Level Miami Center
05:07PM 29.2061 -78.9272 188° South 400 460 38,000  Level Miami Center
05:08PM 29.1014 -78.9417 187° South 395 455 38,000  Level Miami Center
05:09PM 28.9908 -78.9517 185° South 395 455 38,000  Level Miami Center
05:10PM 28.8819 -78.9661 187° South 390 449 38,000  Level Miami Center
05:11PM 28.7775 -78.9808 187° South 390 449 38,000  Level Miami Center
05:12PM 28.6708 -78.9953 187° South 390 449 38,000 -540 Level Miami Center
05:13PM 28.5600 -79.0097 187° South 390 449 37,000 -960 Descending Miami Center
05:14PM 28.4514 -79.0242 187° South 390 449 36,100 -1,020 Descending Miami Center
05:15PM 28.3425 -79.0386 187° South 395 455 35,000 -1,140 Descending Miami Center
05:16PM 28.2336 -79.0694 194° South 395 455 33,900 -1,200 Descending Miami Center
05:17PM 28.1267 -79.1028 195° South 395 455 32,700 -1,200 Descending Miami Center
05:18PM 28.0153 -79.1358 195° South 403 464 31,600 -1,200 Descending Miami Center
05:19PM 27.9061 -79.1711 196° South 410 472 30,400 -1,260 Descending Miami Center
05:20PM 27.7803 -79.2108 196° South 421 484 29,100 -1,200 Descending Miami Center
05:21PM 27.6839 -79.2394 195° South 416 479 28,000 -1,020 Descending Miami Center
05:22PM 27.5747 -79.2722 195° South 409 471 27,100 -1,080 Descending Miami Center
05:23PM 27.4592 -79.3072 195° South 404 465 25,900 -1,080 Descending Miami Center
05:24PM 27.3544 -79.3378 195° South 398 458 25,000 -1,080 Descending Miami Center
05:25PM 27.2494 -79.3706 196° South 393 452 23,800 -1,200 Descending Miami Center
05:26PM 27.1633 -79.3944 194° South 376 433 22,600 -1,200 Descending Miami Center
05:27PM 27.0689 -79.4250 196° South 364 419 21,500 -1,260 Descending Miami Center
05:28PM 26.9658 -79.4578 196° South 352 405 20,100 -1,200 Descending Miami Center
05:29PM 26.8714 -79.4858 195° South 352 405 19,200 -960 Descending Miami Center
05:30PM 26.7728 -79.5139 194° South 359 413 18,200 -900 Descending Miami Center
05:31PM 26.6825 -79.5422 196° South 354 407 17,400 -900 Descending Miami Center
05:32PM 26.5981 -79.5819 203° Southwest 339 390 16,400 -720 Descending Miami Center
05:33PM 26.5197 -79.6358 212° Southwest 333 383 16,000 -300 Descending Miami Center
05:33PM 26.4981 -79.6750 238° Southwest 319 367 16,000  Level Miami Center
05:34PM 26.4722 -79.7206 238° Southwest 317 365 16,000  Level Miami Center
05:34PM 26.4461 -79.7664 238° Southwest 325 374 16,000  Level Miami Center
05:35PM 26.4225 -79.8006 232° Southwest 328 377 16,000  Level Miami Center
05:35PM 26.3800 -79.8367 217° Southwest 324 373 16,000  Level Miami Center
05:36PM 26.3461 -79.8589 210° Southwest 323 372 16,000 -600 Level Miami Center
05:36PM 26.3122 -79.8883 218° Southwest 327 376 15,500 -1,800 Descending Miami Center
05:37PM 26.2697 -79.9172 211° Southwest 328 377 14,200 -2,580 Descending Miami Center
05:38PM 26.2167 -79.9578 214° Southwest 331 381 12,400 -2,520 Descending Miami Center
05:38PM 26.2019 -79.9689 214° Southwest 333 383 11,700 -2,580 Descending Miami Center
05:38PM 26.1531 -80.0044 213° Southwest 332 382 10,300 -1,740 Descending Miami Center
05:39PM 26.1275 -80.0225 212° Southwest 339 390 10,000 -480 Descending Miami Center
05:39PM 26.0728 -80.0394 196° South 289 333 9,800 -720 Descending Miami Center
05:40PM 26.0522 -80.0342 167° South 293 337 9,300 -1,200 Descending Miami Center
05:40PM 25.9958 -80.0258 172° South 266 306 8,600 -1,200 Descending Miami Center
05:41PM 25.9794 -80.0186 158° South 273 314 8,100 -1,800 Descending Miami Center
05:42PM 25.9169 -80.0075 171° South 238 274 6,600 -1,920 Descending Miami Center
05:42PM 25.9044 -80.0028 161° South 267 307 6,200 -2,220 Descending Miami Center
05:43PM 25.8542 -80.0061 183° South 229 264 4,400 -2,100 Descending Miami Center
05:43PM 25.8458 -80.0103 204° Southwest 243 280 4,100 -1,380 Descending Miami Center
05:44PM 25.8178 -80.0581 237° Southwest 215 247 3,000 -1,440 Descending Miami Center